createdAt,value
2019-02-02T00:02:02.014Z,88.58
2019-02-02T00:04:32.569Z,102.97
2019-02-02T00:07:03.083Z,89.15
2019-02-02T00:09:33.725Z,90.30
2019-02-02T00:12:04.239Z,88.90
2019-02-02T00:14:34.836Z,96.47
2019-02-02T00:17:05.570Z,107.70
2019-02-02T00:19:36.159Z,101.75
2019-02-02T00:22:08.599Z,99.62
2019-02-02T00:24:39.228Z,92.22
2019-02-02T00:27:09.761Z,93.72
2019-02-02T00:29:40.251Z,93.85
2019-02-02T00:32:10.807Z,93.50
2019-02-02T00:34:41.346Z,101.30
2019-02-02T00:37:11.933Z,101.33
2019-02-02T00:39:42.423Z,89.40
2019-02-02T00:42:12.950Z,100.30
2019-02-02T00:44:43.479Z,109.20
2019-02-02T00:47:14.051Z,112.17
2019-02-02T00:49:44.678Z,90.28
2019-02-02T00:52:15.189Z,99.83
2019-02-02T00:54:45.746Z,102.07
2019-02-02T00:57:16.304Z,105.03
2019-02-02T00:59:46.853Z,97.53
2019-02-02T01:02:17.485Z,101.92
2019-02-02T01:04:48.082Z,110.20
2019-02-02T01:07:19.691Z,99.50
2019-02-02T01:09:50.237Z,104.05
2019-02-02T01:12:20.754Z,95.45
2019-02-02T01:14:51.321Z,91.73
2019-02-02T01:17:21.886Z,107.67
2019-02-02T01:19:52.406Z,103.67
2019-02-02T01:22:22.948Z,106.07
2019-02-02T01:24:53.558Z,98.58
2019-02-02T01:27:24.090Z,107.10
2019-02-02T01:29:54.590Z,92.95
2019-02-02T01:32:25.266Z,93.85
2019-02-02T01:34:55.741Z,93.72
2019-02-02T01:37:26.300Z,103.35
2019-02-02T01:39:56.853Z,102.87
2019-02-02T01:42:27.372Z,95.00
2019-02-02T01:44:57.953Z,99.15
2019-02-02T01:47:28.535Z,91.10
2019-02-02T01:49:59.146Z,103.25
2019-02-02T01:52:29.644Z,100.10
2019-02-02T01:55:00.313Z,91.45
2019-02-02T01:57:30.855Z,105.43
2019-02-02T02:00:01.402Z,100.35
2019-02-02T02:02:31.977Z,93.30
2019-02-02T02:05:02.500Z,115.32
2019-02-02T02:07:33.029Z,101.37
2019-02-02T02:10:03.884Z,99.35
2019-02-02T02:12:34.483Z,113.05
2019-02-02T02:15:05.760Z,107.52
2019-02-02T02:17:36.322Z,101.92
2019-02-02T02:20:08.481Z,95.03
2019-02-02T02:22:41.099Z,106.97
2019-02-02T02:25:14.436Z,98.62
2019-02-02T02:27:44.992Z,95.30
2019-02-02T02:30:23.597Z,111.73
2019-02-02T02:32:54.557Z,103.20
2019-02-02T02:35:25.081Z,95.85
2019-02-02T02:37:57.111Z,86.22
2019-02-02T02:40:28.540Z,97.72
2019-02-02T02:42:59.161Z,102.30
2019-02-02T02:45:30.516Z,114.32
2019-02-02T02:48:01.046Z,106.75
2019-02-02T02:50:33.758Z,112.12
2019-02-02T02:53:04.274Z,98.50
2019-02-02T02:55:34.959Z,108.10
2019-02-02T02:58:06.103Z,93.60
2019-02-02T03:00:36.602Z,99.22
2019-02-02T03:03:07.416Z,107.97
2019-02-02T03:05:37.951Z,110.45
2019-02-02T03:08:08.560Z,105.77
2019-02-02T03:10:39.109Z,110.40
2019-02-02T03:13:09.774Z,106.52
2019-02-02T03:15:40.343Z,106.33
2019-02-02T03:18:10.893Z,98.60
2019-02-02T03:20:41.454Z,110.17
2019-02-02T03:23:11.978Z,101.60
2019-02-02T03:25:42.505Z,98.47
2019-02-02T03:28:13.101Z,104.25
2019-02-02T03:30:43.659Z,94.37
2019-02-02T03:33:14.143Z,104.60
2019-02-02T03:35:44.728Z,102.50
2019-02-02T03:38:15.244Z,93.97
2019-02-02T03:40:45.724Z,89.32
2019-02-02T03:43:16.277Z,103.15
2019-02-02T03:45:46.836Z,91.57
2019-02-02T03:48:17.327Z,96.70
2019-02-02T03:50:47.852Z,94.55
2019-02-02T03:53:18.325Z,101.87
2019-02-02T03:55:49.029Z,102.38
2019-02-02T03:58:19.689Z,94.05
2019-02-02T04:00:50.207Z,113.68
2019-02-02T04:03:20.791Z,85.32
2019-02-02T04:05:51.526Z,108.40
2019-02-02T04:08:22.072Z,106.85
2019-02-02T04:10:52.565Z,109.20
2019-02-02T04:13:23.127Z,101.78
2019-02-02T04:15:53.595Z,102.67
2019-02-02T04:18:24.103Z,98.40
2019-02-02T04:20:54.625Z,106.60
2019-02-02T04:23:25.111Z,101.92
2019-02-02T04:25:58.653Z,100.58
2019-02-02T04:28:29.126Z,98.40
2019-02-02T04:30:59.626Z,103.55
2019-02-02T04:33:30.133Z,103.55
2019-02-02T04:36:00.597Z,99.62
2019-02-02T04:38:31.226Z,99.40
2019-02-02T04:41:01.796Z,101.47
2019-02-02T04:43:32.301Z,112.17
2019-02-02T04:46:02.763Z,97.45
2019-02-02T04:48:33.340Z,101.02
2019-02-02T04:51:03.829Z,101.40
2019-02-02T04:53:34.320Z,105.45
2019-02-02T04:56:04.821Z,102.25
2019-02-02T04:58:35.311Z,96.67
2019-02-02T05:01:05.878Z,109.95
2019-02-02T05:03:36.414Z,107.05
2019-02-02T05:06:06.921Z,102.05
2019-02-02T05:08:37.415Z,104.67
2019-02-02T05:11:07.942Z,115.62
2019-02-02T05:13:38.457Z,109.00
2019-02-02T05:16:08.952Z,107.25
2019-02-02T05:18:39.525Z,112.83
2019-02-02T05:21:10.097Z,107.87
2019-02-02T05:23:40.622Z,105.30
2019-02-02T05:26:11.185Z,114.65
2019-02-02T05:28:41.667Z,120.08
2019-02-02T05:31:12.142Z,105.80
2019-02-02T05:33:42.687Z,101.30
2019-02-02T05:36:13.268Z,118.07
2019-02-02T05:38:43.781Z,108.10
2019-02-02T05:41:14.289Z,105.92
2019-02-02T05:43:44.790Z,113.42
2019-02-02T05:46:15.313Z,122.35
2019-02-02T05:48:45.793Z,110.53
2019-02-02T05:51:16.282Z,110.63
2019-02-02T05:53:46.782Z,126.65
2019-02-02T05:56:17.234Z,116.57
2019-02-02T05:58:47.713Z,113.70
2019-02-02T06:01:20.447Z,115.55
2019-02-02T06:03:51.029Z,122.85
2019-02-02T06:06:21.533Z,109.12
2019-02-02T06:08:52.118Z,114.22
2019-02-02T06:11:22.606Z,123.90
2019-02-02T06:13:53.141Z,112.60
2019-02-02T06:16:23.652Z,111.92
2019-02-02T06:18:54.199Z,104.97
2019-02-02T06:21:24.691Z,111.20
2019-02-02T06:23:55.175Z,111.97
2019-02-02T06:26:25.712Z,111.93
2019-02-02T06:28:56.387Z,115.08
2019-02-02T06:31:26.894Z,121.50
2019-02-02T06:33:57.508Z,112.57
2019-02-02T06:36:27.980Z,122.30
2019-02-02T06:38:58.476Z,101.50
2019-02-02T06:41:28.995Z,127.32
2019-02-02T06:43:59.506Z,119.13
2019-02-02T06:46:30.007Z,115.35
2019-02-02T06:49:01.599Z,111.15
2019-02-02T06:51:32.286Z,120.60
2019-02-02T06:54:02.866Z,110.95
2019-02-02T06:56:33.363Z,107.90
2019-02-02T06:59:03.883Z,112.00
2019-02-02T07:01:34.421Z,117.57
2019-02-02T07:04:07.920Z,114.77
2019-02-02T07:06:40.181Z,118.77
2019-02-02T07:09:11.048Z,108.63
2019-02-02T07:11:41.555Z,113.88
2019-02-02T07:14:12.455Z,124.65
2019-02-02T07:16:48.838Z,121.05
2019-02-02T07:19:19.465Z,109.15
2019-02-02T07:21:49.959Z,112.45
2019-02-02T07:24:20.432Z,108.07
2019-02-02T07:26:50.995Z,111.32
2019-02-02T07:29:21.514Z,131.63
2019-02-02T07:31:52.049Z,106.50
2019-02-02T07:34:22.744Z,112.50
2019-02-02T07:36:53.228Z,124.80
2019-02-02T07:39:24.293Z,125.95
2019-02-02T07:41:54.737Z,108.32
2019-02-02T07:44:25.279Z,113.37
2019-02-02T07:46:55.739Z,118.53
2019-02-02T07:49:26.322Z,127.80
2019-02-02T07:51:56.825Z,123.50
2019-02-02T07:54:28.581Z,107.85
2019-02-02T07:56:59.118Z,128.00
2019-02-02T07:59:29.593Z,127.83
2019-02-02T08:02:00.146Z,125.50
2019-02-02T08:04:30.737Z,102.13
2019-02-02T08:07:01.296Z,112.03
2019-02-02T08:09:31.752Z,112.55
2019-02-02T08:12:02.273Z,117.55
2019-02-02T08:14:32.779Z,123.02
2019-02-02T08:17:03.426Z,116.37
2019-02-02T08:19:34.150Z,114.05
2019-02-02T08:22:04.750Z,115.32
2019-02-02T08:24:35.206Z,117.03
2019-02-02T08:27:05.845Z,113.88
2019-02-02T08:29:36.354Z,123.02
2019-02-02T08:32:07.214Z,113.25
2019-02-02T08:34:37.747Z,119.62
2019-02-02T08:37:08.247Z,109.55
2019-02-02T08:39:38.765Z,127.00
2019-02-02T08:42:09.270Z,120.80
2019-02-02T08:44:39.747Z,128.78
2019-02-02T08:47:10.207Z,119.13
2019-02-02T08:49:40.742Z,115.60
2019-02-02T08:52:13.142Z,120.72
2019-02-02T08:54:43.681Z,108.15
2019-02-02T08:57:14.217Z,128.40
2019-02-02T08:59:44.678Z,113.40
2019-02-02T09:02:15.172Z,122.85
2019-02-02T09:04:45.695Z,110.63
2019-02-02T09:07:16.212Z,127.20
2019-02-02T09:09:46.681Z,125.80
2019-02-02T09:12:17.187Z,115.52
2019-02-02T09:14:47.707Z,109.55
2019-02-02T09:17:18.188Z,120.55
2019-02-02T09:19:48.674Z,126.67
2019-02-02T09:22:19.214Z,129.35
2019-02-02T09:24:51.821Z,131.37
2019-02-02T09:27:21.956Z,127.02
2019-02-02T09:29:52.557Z,135.40
2019-02-02T09:32:23.020Z,126.33
2019-02-02T09:34:53.509Z,123.28
2019-02-02T09:37:24.073Z,126.38
2019-02-02T09:39:54.595Z,131.93
2019-02-02T09:42:25.242Z,126.07
2019-02-02T09:47:24.852Z,126.20
2019-02-02T09:49:55.412Z,125.95
2019-02-02T09:52:25.903Z,131.30
2019-02-02T09:54:56.484Z,132.22
2019-02-02T09:57:27.762Z,133.18
2019-02-02T09:59:58.712Z,135.15
2019-02-02T10:02:29.267Z,138.88
2019-02-02T10:04:59.771Z,132.15
2019-02-02T10:07:30.298Z,128.32
2019-02-02T10:10:00.783Z,121.50
2019-02-02T10:12:31.358Z,132.70
2019-02-02T10:15:01.839Z,132.67
2019-02-02T10:17:32.359Z,132.00
2019-02-02T10:20:02.889Z,146.13
2019-02-02T10:22:33.428Z,128.05
2019-02-02T10:25:04.034Z,141.82
2019-02-02T10:27:34.666Z,132.70
2019-02-02T10:30:07.795Z,125.95
2019-02-02T10:32:38.300Z,125.18
2019-02-02T10:35:09.004Z,129.32
2019-02-02T10:37:39.565Z,145.77
2019-02-02T10:40:10.692Z,130.25
2019-02-02T10:42:41.451Z,125.35
2019-02-02T10:45:12.592Z,130.50
2019-02-02T10:47:43.161Z,135.80
2019-02-02T10:50:15.370Z,139.25
2019-02-02T10:52:46.040Z,134.85
2019-02-02T10:55:16.661Z,126.35
2019-02-02T10:57:47.353Z,126.13
2019-02-02T11:00:27.719Z,131.52
2019-02-02T11:02:58.471Z,139.50
2019-02-02T11:05:30.109Z,123.28
2019-02-02T11:08:00.730Z,118.17
2019-02-02T11:10:32.444Z,132.23
2019-02-02T11:13:03.146Z,139.00
2019-02-02T11:15:33.642Z,130.07
2019-02-02T11:18:05.082Z,127.70
2019-02-02T11:20:36.690Z,119.53
2019-02-02T11:23:07.545Z,129.97
2019-02-02T11:25:38.280Z,127.70
2019-02-02T11:28:09.145Z,118.33
2019-02-02T11:30:39.914Z,126.35
2019-02-02T11:33:10.942Z,121.63
2019-02-02T11:35:41.489Z,124.20
2019-02-02T11:38:12.020Z,124.58
2019-02-02T11:40:42.535Z,134.45
2019-02-02T11:43:13.053Z,125.47
2019-02-02T11:45:43.553Z,138.83
2019-02-02T11:48:15.162Z,128.82
2019-02-02T11:50:45.790Z,124.75
2019-02-02T11:53:16.281Z,122.75
2019-02-02T11:55:46.867Z,127.47
2019-02-02T11:58:17.320Z,126.80
2019-02-02T12:00:47.834Z,128.20
2019-02-02T12:03:18.375Z,137.65
2019-02-02T12:05:48.953Z,140.75
2019-02-02T12:08:19.476Z,127.20
2019-02-02T12:10:50.003Z,130.75
2019-02-02T12:13:20.659Z,133.45
2019-02-02T12:15:51.170Z,139.28
2019-02-02T12:18:21.694Z,121.15
2019-02-02T12:20:52.216Z,138.65
2019-02-02T12:23:22.807Z,125.05
2019-02-02T12:25:53.476Z,126.82
2019-02-02T12:28:23.955Z,126.87
2019-02-02T12:30:54.563Z,141.07
2019-02-02T12:33:25.932Z,135.45
2019-02-02T12:35:56.699Z,137.32
2019-02-02T12:38:27.235Z,132.65
2019-02-02T12:40:59.733Z,136.65
2019-02-02T12:43:30.048Z,136.67
2019-02-02T12:46:00.619Z,125.53
2019-02-02T12:48:32.368Z,138.57
2019-02-02T12:51:04.654Z,130.37
2019-02-02T12:53:35.186Z,140.22
2019-02-02T12:56:05.759Z,139.55
2019-02-02T12:58:36.239Z,143.90
2019-02-02T13:01:06.843Z,129.15
2019-02-02T13:03:37.416Z,131.93
2019-02-02T13:06:07.938Z,130.97
2019-02-02T13:08:38.469Z,147.70
2019-02-02T13:11:08.998Z,152.97
2019-02-02T13:13:42.414Z,131.37
2019-02-02T13:16:11.780Z,130.72
2019-02-02T13:18:42.264Z,135.75
2019-02-02T13:21:12.805Z,133.07
2019-02-02T13:23:43.450Z,138.65
2019-02-02T13:26:14.033Z,130.03
2019-02-02T13:28:44.618Z,134.15
2019-02-02T13:31:15.181Z,129.83
2019-02-02T13:33:45.757Z,131.45
2019-02-02T13:36:16.398Z,125.70
2019-02-02T13:38:46.868Z,134.22
2019-02-02T13:41:17.430Z,133.97
2019-02-02T13:43:47.926Z,120.30
2019-02-02T13:46:18.436Z,119.70
2019-02-02T13:48:51.007Z,128.00
2019-02-02T13:51:21.134Z,127.80
2019-02-02T13:53:51.698Z,119.42
2019-02-02T13:56:22.514Z,133.80
2019-02-02T13:58:53.087Z,129.03
2019-02-02T14:01:23.738Z,126.90
2019-02-02T14:03:54.216Z,116.30
2019-02-02T14:06:24.745Z,125.10
2019-02-02T14:08:55.256Z,128.18
2019-02-02T14:11:25.785Z,115.62
2019-02-02T14:13:56.338Z,121.67
2019-02-02T14:16:26.869Z,133.43
2019-02-02T14:18:57.353Z,132.67
2019-02-02T14:21:28.055Z,119.33
2019-02-02T14:23:58.572Z,113.88
2019-02-02T14:26:29.078Z,125.05
2019-02-02T14:28:59.597Z,118.60
2019-02-02T14:31:30.091Z,119.53
2019-02-02T14:34:00.649Z,115.37
2019-02-02T14:36:31.174Z,112.03
2019-02-02T14:39:01.684Z,131.07
2019-02-02T14:41:32.166Z,122.17
2019-02-02T14:44:02.650Z,117.40
2019-02-02T14:46:33.225Z,126.20
2019-02-02T14:49:03.710Z,122.78
2019-02-02T14:51:34.235Z,105.72
2019-02-02T14:54:05.462Z,118.65
2019-02-02T14:56:36.014Z,110.40
2019-02-02T14:59:06.627Z,117.72
2019-02-02T15:01:37.253Z,118.17
2019-02-02T15:04:07.758Z,131.65
2019-02-02T15:06:38.325Z,109.23
2019-02-02T15:09:09.692Z,114.67
2019-02-02T15:11:41.002Z,101.85
2019-02-02T15:14:11.654Z,108.70
2019-02-02T15:16:42.200Z,119.87
2019-02-02T15:19:12.731Z,115.05
2019-02-02T15:21:43.606Z,101.60
2019-02-02T15:24:14.126Z,106.80
2019-02-02T15:26:44.611Z,106.47
2019-02-02T15:29:15.168Z,109.63
2019-02-02T15:31:45.688Z,111.12
2019-02-02T15:34:16.203Z,95.70
2019-02-02T15:36:46.756Z,100.85
2019-02-02T15:39:17.263Z,116.20
2019-02-02T15:41:52.911Z,106.20
2019-02-02T15:44:20.243Z,121.67
2019-02-02T15:49:20.129Z,106.37
2019-02-02T15:51:51.316Z,109.47
2019-02-02T15:54:22.161Z,113.40
2019-02-02T15:56:54.768Z,105.57
2019-02-02T15:59:25.211Z,114.28
2019-02-02T16:01:55.851Z,120.53
2019-02-02T16:04:26.541Z,107.27
2019-02-02T16:06:57.243Z,118.13
2019-02-02T16:09:28.086Z,110.85
2019-02-02T16:11:59.660Z,124.00
2019-02-02T16:14:30.496Z,117.70
2019-02-02T16:17:39.949Z,125.38
2019-02-02T16:20:20.708Z,124.10
2019-02-02T16:22:58.234Z,126.20
2019-02-02T16:25:48.703Z,134.40
2019-02-02T16:28:38.654Z,126.90
2019-02-02T16:31:12.957Z,134.03
2019-02-02T16:33:43.997Z,126.87
2019-02-02T16:36:14.673Z,132.50
2019-02-02T16:38:45.608Z,123.75
2019-02-02T16:41:16.693Z,120.75
2019-02-02T16:43:48.575Z,119.37
2019-02-02T16:46:20.877Z,115.72
2019-02-02T16:48:51.545Z,115.70
2019-02-02T16:51:22.234Z,115.90
2019-02-02T16:53:52.932Z,125.80
2019-02-02T16:56:23.568Z,123.50
2019-02-02T16:58:54.593Z,130.70
2019-02-02T17:01:25.264Z,127.35
2019-02-02T17:03:56.083Z,128.80
2019-02-02T17:06:26.887Z,124.15
2019-02-02T17:08:57.719Z,117.77
2019-02-02T17:11:28.590Z,124.33
2019-02-02T17:13:59.250Z,117.47
2019-02-02T17:16:29.896Z,107.27
2019-02-02T17:19:00.479Z,124.05
2019-02-02T17:21:31.084Z,120.53
2019-02-02T17:24:01.706Z,117.33
2019-02-02T17:26:32.303Z,122.07
2019-02-02T17:29:02.918Z,111.40
2019-02-02T17:31:33.687Z,130.60
2019-02-02T17:34:04.409Z,123.43
2019-02-02T17:36:35.126Z,124.18
2019-02-02T17:39:07.734Z,118.15
2019-02-02T17:41:38.501Z,134.30
2019-02-02T17:44:09.740Z,121.00
2019-02-02T17:46:47.170Z,124.53
2019-02-02T17:49:15.211Z,124.00
2019-02-02T17:54:21.066Z,114.50
2019-02-02T17:57:00.428Z,129.18
2019-02-02T17:59:31.097Z,121.62
2019-02-02T18:02:02.745Z,100.38
2019-02-02T18:04:40.998Z,130.53
2019-02-02T18:07:06.243Z,131.20
2019-02-02T18:09:37.001Z,132.30
2019-02-02T18:12:07.687Z,132.60
2019-02-02T18:14:40.977Z,121.27
2019-02-02T18:17:14.371Z,118.05
2019-02-02T18:33:32.659Z,133.20
2019-02-02T18:36:03.387Z,131.77
2019-02-02T18:38:34.359Z,125.85
2019-02-02T18:41:05.468Z,133.35
2019-02-02T18:43:39.980Z,121.87
2019-02-02T18:46:20.182Z,126.58
2019-02-02T18:48:51.245Z,124.45
2019-02-02T18:51:22.230Z,136.62
2019-02-02T18:53:53.030Z,118.82
2019-02-02T18:56:23.664Z,137.90
2019-02-02T18:58:58.203Z,146.50
2019-02-02T19:01:29.056Z,146.75
2019-02-02T19:04:04.793Z,131.20
2019-02-02T19:06:40.051Z,150.82
2019-02-02T19:09:27.612Z,135.10
2019-02-02T19:15:02.653Z,145.22
2019-02-02T19:17:33.526Z,135.75
2019-02-02T19:20:08.759Z,128.93
2019-02-02T19:55:29.388Z,138.82
2019-02-02T19:58:00.344Z,137.07
2019-02-02T20:00:33.167Z,141.95
2019-02-02T20:03:05.021Z,137.97
2019-02-02T20:05:36.207Z,142.90
2019-02-02T20:08:07.299Z,158.72
2019-02-02T20:10:38.635Z,151.87
2019-02-02T20:13:10.365Z,155.12
2019-02-02T20:15:41.182Z,152.85
2019-02-02T20:18:12.702Z,133.70
2019-02-02T20:20:44.055Z,141.30
2019-02-02T20:23:14.994Z,137.20
2019-02-02T20:25:46.611Z,139.43
2019-02-02T20:28:17.643Z,140.07
2019-02-02T20:31:56.896Z,128.65
2019-02-02T21:14:51.187Z,146.32
2019-02-02T21:17:21.856Z,140.80
2019-02-02T21:19:52.576Z,138.60
2019-02-02T21:22:23.369Z,133.25
2019-02-02T21:24:54.107Z,117.77
2019-02-02T21:27:25.001Z,120.17
2019-02-02T21:29:56.040Z,118.85
2019-02-02T21:32:26.614Z,125.67
2019-02-02T21:35:02.006Z,113.75
2019-02-02T21:37:33.180Z,118.57
2019-02-02T21:40:30.356Z,118.47
2019-02-02T21:43:01.310Z,119.53
2019-02-02T21:45:32.316Z,109.27
2019-02-02T21:48:02.990Z,107.78
2019-02-02T21:50:33.534Z,129.68
2019-02-02T21:53:04.138Z,120.30
2019-02-02T21:55:34.827Z,113.92
2019-02-02T21:58:05.416Z,128.53
2019-02-02T22:00:41.799Z,118.90
2019-02-02T22:03:12.494Z,113.05
2019-02-02T22:05:42.994Z,113.70
2019-02-02T22:08:13.742Z,107.00
2019-02-02T22:10:44.506Z,118.93
2019-02-02T22:13:15.591Z,124.27
2019-02-02T22:15:46.229Z,114.28
2019-02-02T22:18:16.713Z,119.25
2019-02-02T22:20:47.171Z,109.85
2019-02-02T22:23:17.756Z,121.35
2019-02-02T22:25:49.928Z,109.17
2019-02-02T22:28:20.453Z,115.30
2019-02-02T22:30:51.060Z,110.08
2019-02-02T22:33:21.701Z,114.05
2019-02-02T22:35:52.239Z,110.37
2019-02-02T22:38:22.865Z,117.53
2019-02-02T22:40:53.362Z,117.57
2019-02-02T22:43:23.919Z,116.40
2019-02-02T22:45:54.544Z,116.15
2019-02-02T22:48:25.044Z,107.43
2019-02-02T22:50:55.635Z,114.25
2019-02-02T22:53:26.182Z,109.12
2019-02-02T22:55:56.738Z,113.03
2019-02-02T22:58:27.599Z,108.40
2019-02-02T23:01:33.127Z,107.72
2019-02-02T23:04:59.000Z,108.22
2019-02-02T23:08:39.836Z,97.60
2019-02-02T23:11:33.921Z,109.63
2019-02-02T23:14:40.864Z,110.63
2019-02-02T23:17:11.375Z,112.62
2019-02-02T23:19:41.922Z,95.32
2019-02-02T23:22:12.476Z,114.20
2019-02-02T23:24:42.983Z,97.47
2019-02-02T23:27:13.470Z,101.85
2019-02-02T23:29:44.074Z,95.45
2019-02-02T23:32:14.605Z,106.60
2019-02-02T23:34:45.103Z,133.18
2019-02-02T23:37:15.697Z,102.60
2019-02-02T23:39:46.172Z,112.13
2019-02-02T23:42:16.724Z,106.85
2019-02-02T23:44:47.281Z,89.50
2019-02-02T23:47:17.810Z,107.92
2019-02-02T23:49:48.288Z,93.75
2019-02-02T23:52:18.805Z,91.17
2019-02-02T23:54:49.330Z,96.25
2019-02-02T23:57:19.838Z,93.63
2019-02-02T23:59:50.572Z,91.97
